createdAt,value
2017-08-02T16:13:07.036Z,3.27
2017-08-02T16:15:36.550Z,2.93
2017-08-02T16:18:06.073Z,3.50
2017-08-02T16:20:35.557Z,3.00
2017-08-02T16:23:05.085Z,3.50
2017-08-02T16:25:34.615Z,2.93
2017-08-02T16:28:04.215Z,2.90
2017-08-02T16:30:33.690Z,2.87
2017-08-02T16:33:03.225Z,3.17
2017-08-02T16:35:32.704Z,3.20
2017-08-02T16:38:02.236Z,3.47
2017-08-02T16:40:31.776Z,2.97
2017-08-02T16:43:01.291Z,3.93
2017-08-02T16:45:30.789Z,7.37
2017-08-02T16:48:00.322Z,8.73
2017-08-02T16:50:29.801Z,5.27
2017-08-02T16:52:59.318Z,3.80
2017-08-02T16:55:28.826Z,3.80
2017-08-02T16:57:58.341Z,4.63
2017-08-02T17:00:27.903Z,3.83
2017-08-02T17:02:57.385Z,3.60
2017-08-02T17:05:26.927Z,4.10
2017-08-02T17:07:56.499Z,4.03
2017-08-02T17:10:25.978Z,3.90
2017-08-02T17:12:55.571Z,3.77
2017-08-02T17:15:25.111Z,3.80
2017-08-02T17:17:54.631Z,3.90
2017-08-02T17:20:24.161Z,3.93
2017-08-02T17:22:53.639Z,4.20
2017-08-02T17:25:23.164Z,3.90
2017-08-02T17:27:52.677Z,3.93
2017-08-02T17:30:22.156Z,4.23
2017-08-02T17:32:51.697Z,4.07
2017-08-02T17:35:21.177Z,4.47
2017-08-02T17:37:50.777Z,3.50
2017-08-02T17:40:20.306Z,4.10
2017-08-02T17:42:49.799Z,4.73
2017-08-02T17:45:19.308Z,3.70
2017-08-02T17:47:49.144Z,4.43
2017-08-02T17:50:18.677Z,4.50
2017-08-02T17:52:48.246Z,4.40
2017-08-02T17:55:17.765Z,4.10
2017-08-02T17:57:47.315Z,4.27
2017-08-02T18:00:17.362Z,4.23
2017-08-02T18:02:46.897Z,4.90
2017-08-02T18:05:16.376Z,4.70
2017-08-02T18:07:45.884Z,4.10
2017-08-02T18:10:15.433Z,4.37
2017-08-02T18:12:44.948Z,4.80
2017-08-02T18:15:14.466Z,4.43
2017-08-02T18:17:43.955Z,5.27
2017-08-02T18:20:13.650Z,4.70
2017-08-02T18:22:43.154Z,10.53
2017-08-02T18:25:12.783Z,8.40
2017-08-02T18:27:42.396Z,11.60
2017-08-02T18:30:11.875Z,11.73
2017-08-02T18:32:41.429Z,10.00
2017-08-02T18:35:10.934Z,7.73
2017-08-02T18:37:40.446Z,17.27
2017-08-02T18:40:09.953Z,13.83
2017-08-02T18:42:39.513Z,18.33
2017-08-02T18:45:09.011Z,12.27
2017-08-02T18:47:38.556Z,10.97
2017-08-02T18:50:08.118Z,13.40
2017-08-02T18:52:37.610Z,14.53
2017-08-02T18:55:07.142Z,19.47
2017-08-02T18:57:36.713Z,18.23
2017-08-02T19:00:06.280Z,13.97
2017-08-02T19:02:35.776Z,11.27
2017-08-02T19:05:05.432Z,8.87
2017-08-02T19:07:34.909Z,9.70
2017-08-02T19:10:04.436Z,10.33
2017-08-02T19:12:33.960Z,10.97
2017-08-02T19:15:03.479Z,8.40
2017-08-02T19:17:32.961Z,7.37
2017-08-02T19:20:02.546Z,6.53
2017-08-02T19:22:32.062Z,6.73
2017-08-02T19:25:01.568Z,6.00
2017-08-02T19:27:31.029Z,5.70
2017-08-02T19:30:00.624Z,5.70
2017-08-02T19:32:30.132Z,13.60
2017-08-02T19:34:59.752Z,11.20
2017-08-02T19:37:29.264Z,14.50
2017-08-02T19:39:58.776Z,11.23
2017-08-02T19:42:28.308Z,18.70
2017-08-02T19:44:57.990Z,13.30
2017-08-02T19:47:27.499Z,12.03
2017-08-02T19:49:57.010Z,8.40
2017-08-02T19:52:26.511Z,14.37
2017-08-02T19:54:56.039Z,20.60
2017-08-02T19:57:25.535Z,12.93
2017-08-02T19:59:55.069Z,8.50
2017-08-02T20:02:24.592Z,6.93
2017-08-02T20:04:54.116Z,6.77
2017-08-02T20:07:23.629Z,5.63
2017-08-02T20:09:53.141Z,5.83
2017-08-02T20:12:22.654Z,7.20
2017-08-02T20:14:52.170Z,29.43
2017-08-02T20:17:21.660Z,13.23
2017-08-02T20:19:51.172Z,10.80
2017-08-02T20:22:21.238Z,15.37
2017-08-02T20:24:50.750Z,8.10
2017-08-02T20:27:20.261Z,6.77
2017-08-02T20:29:49.769Z,6.90
2017-08-02T20:32:19.281Z,5.13
2017-08-02T20:34:48.783Z,5.90
2017-08-02T20:37:18.284Z,5.30
2017-08-02T20:39:47.751Z,5.00
2017-08-02T20:42:17.291Z,5.13
2017-08-02T20:44:46.815Z,5.70
2017-08-02T20:47:16.334Z,4.50
2017-08-02T20:49:45.842Z,4.43
2017-08-02T20:52:15.400Z,4.77
2017-08-02T20:54:44.890Z,4.73
